sensor_id;sensor_type;location;lat;lon;timestamp;pressure;altitude;pressure_sealevel;temperature;humidity
66385;BME280;53426;55.872;37.462;2023-04-01T00:01:20;97800.84;;;3.73;73.39
66385;BME280;53426;55.872;37.462;2023-04-01T00:03:46;97802.22;;;3.77;73.91
66385;BME280;53426;55.872;37.462;2023-04-01T00:06:16;97813.41;;;3.79;73.69
66385;BME280;53426;55.872;37.462;2023-04-01T00:08:42;97814.38;;;3.78;73.91
66385;BME280;53426;55.872;37.462;2023-04-01T00:11:10;97819.88;;;3.75;73.71
66385;BME280;53426;55.872;37.462;2023-04-01T00:13:36;97781.44;;;3.55;74.01
66385;BME280;53426;55.872;37.462;2023-04-01T00:16:03;97737.72;;;3.25;73.84
66385;BME280;53426;55.872;37.462;2023-04-01T00:18:30;97813.34;;;3.70;74.27
66385;BME280;53426;55.872;37.462;2023-04-01T00:20:56;97810.03;;;3.68;74.47
66385;BME280;53426;55.872;37.462;2023-04-01T00:23:22;97811.94;;;3.66;74.19
66385;BME280;53426;55.872;37.462;2023-04-01T00:25:48;97803.28;;;3.65;74.64
66385;BME280;53426;55.872;37.462;2023-04-01T00:28:19;97800.78;;;3.64;74.56
66385;BME280;53426;55.872;37.462;2023-04-01T00:30:48;97807.22;;;3.60;74.90
66385;BME280;53426;55.872;37.462;2023-04-01T00:33:14;97801.16;;;3.59;75.05
66385;BME280;53426;55.872;37.462;2023-04-01T00:35:40;97759.44;;;3.37;74.65
66385;BME280;53426;55.872;37.462;2023-04-01T00:38:07;97795.22;;;3.57;74.97
66385;BME280;53426;55.872;37.462;2023-04-01T00:40:57;97796.09;;;3.67;74.95
66385;BME280;53426;55.872;37.462;2023-04-01T00:43:23;97781.19;;;3.58;75.09
66385;BME280;53426;55.872;37.462;2023-04-01T00:45:49;97793.75;;;3.64;74.77
66385;BME280;53426;55.872;37.462;2023-04-01T00:48:28;97786.88;;;3.63;74.18
66385;BME280;53426;55.872;37.462;2023-04-01T00:51:20;97787.31;;;3.68;74.73
66385;BME280;53426;55.872;37.462;2023-04-01T00:53:51;97780.91;;;3.61;74.56
66385;BME280;53426;55.872;37.462;2023-04-01T00:56:37;97787.41;;;3.67;74.32
66385;BME280;53426;55.872;37.462;2023-04-01T00:59:09;97775.34;;;3.55;74.45
66385;BME280;53426;55.872;37.462;2023-04-01T01:01:36;97788.66;;;3.63;74.38
66385;BME280;53426;55.872;37.462;2023-04-01T01:04:03;97790.75;;;3.69;74.35
66385;BME280;53426;55.872;37.462;2023-04-01T01:07:40;97769.38;;;3.64;74.24
66385;BME280;53426;55.872;37.462;2023-04-01T01:09:50;97780.16;;;3.70;74.05
66385;BME280;53426;55.872;37.462;2023-04-01T01:12:40;97790.38;;;3.73;74.00
66385;BME280;53426;55.872;37.462;2023-04-01T01:15:26;97790.09;;;3.76;73.78
66385;BME280;53426;55.872;37.462;2023-04-01T01:24:01;97781.81;;;3.71;73.59
66385;BME280;53426;55.872;37.462;2023-04-01T01:30:13;97795.09;;;3.79;73.61
66385;BME280;53426;55.872;37.462;2023-04-01T01:35:59;97797.69;;;3.79;73.28
66385;BME280;53426;55.872;37.462;2023-04-01T01:38:30;97789.97;;;3.78;73.97
66385;BME280;53426;55.872;37.462;2023-04-01T01:41:04;97789.84;;;3.79;73.26
66385;BME280;53426;55.872;37.462;2023-04-01T01:43:35;97784.84;;;3.76;73.17
66385;BME280;53426;55.872;37.462;2023-04-01T01:46:07;97797.44;;;3.83;73.51
66385;BME280;53426;55.872;37.462;2023-04-01T01:48:36;97790.41;;;3.83;73.39
66385;BME280;53426;55.872;37.462;2023-04-01T01:51:05;97773.38;;;3.68;73.35
66385;BME280;53426;55.872;37.462;2023-04-01T01:53:31;97804.22;;;3.85;73.27
66385;BME280;53426;55.872;37.462;2023-04-01T01:55:57;97790.28;;;3.85;73.48
66385;BME280;53426;55.872;37.462;2023-04-01T02:01:05;97793.47;;;3.88;73.58
66385;BME280;53426;55.872;37.462;2023-04-01T02:03:34;97789.91;;;3.89;73.14
66385;BME280;53426;55.872;37.462;2023-04-01T02:06:04;97791.69;;;3.89;72.95
66385;BME280;53426;55.872;37.462;2023-04-01T02:08:36;97781.47;;;3.86;73.42
66385;BME280;53426;55.872;37.462;2023-04-01T02:11:09;97790.59;;;3.91;73.08
66385;BME280;53426;55.872;37.462;2023-04-01T02:13:54;97795.72;;;3.93;73.34
66385;BME280;53426;55.872;37.462;2023-04-01T02:19:18;97803.69;;;3.91;72.99
66385;BME280;53426;55.872;37.462;2023-04-01T02:21:57;97804.53;;;3.92;72.98
66385;BME280;53426;55.872;37.462;2023-04-01T02:24:26;97761.41;;;3.65;73.07
66385;BME280;53426;55.872;37.462;2023-04-01T02:26:53;97802.16;;;3.89;73.47
66385;BME280;53426;55.872;37.462;2023-04-01T02:29:21;97789.84;;;3.79;73.34
66385;BME280;53426;55.872;37.462;2023-04-01T02:31:49;97807.38;;;3.89;73.04
66385;BME280;53426;55.872;37.462;2023-04-01T02:34:16;97799.53;;;3.89;73.30
66385;BME280;53426;55.872;37.462;2023-04-01T02:36:42;97811.66;;;3.90;72.96
66385;BME280;53426;55.872;37.462;2023-04-01T02:39:08;97805.47;;;3.91;73.40
66385;BME280;53426;55.872;37.462;2023-04-01T02:41:41;97813.06;;;3.94;72.89
66385;BME280;53426;55.872;37.462;2023-04-01T02:44:09;97815.00;;;3.92;72.96
66385;BME280;53426;55.872;37.462;2023-04-01T02:46:35;97814.16;;;3.91;73.17
66385;BME280;53426;55.872;37.462;2023-04-01T02:49:01;97814.28;;;3.90;73.27
66385;BME280;53426;55.872;37.462;2023-04-01T02:51:28;97822.16;;;3.90;73.37
66385;BME280;53426;55.872;37.462;2023-04-01T02:53:54;97800.44;;;3.78;73.47
66385;BME280;53426;55.872;37.462;2023-04-01T02:56:20;97815.31;;;3.77;72.53
66385;BME280;53426;55.872;37.462;2023-04-01T02:58:47;97822.50;;;3.75;73.55
66385;BME280;53426;55.872;37.462;2023-04-01T03:01:14;97820.81;;;3.74;73.84
66385;BME280;53426;55.872;37.462;2023-04-01T03:03:40;97828.41;;;3.77;73.65
66385;BME280;53426;55.872;37.462;2023-04-01T03:06:10;97826.50;;;3.79;73.59
66385;BME280;53426;55.872;37.462;2023-04-01T03:08:37;97824.13;;;3.76;73.46
66385;BME280;53426;55.872;37.462;2023-04-01T03:11:03;97820.63;;;3.66;73.55
66385;BME280;53426;55.872;37.462;2023-04-01T03:13:30;97818.25;;;3.63;73.70
66385;BME280;53426;55.872;37.462;2023-04-01T03:15:56;97827.00;;;3.73;73.89
66385;BME280;53426;55.872;37.462;2023-04-01T03:18:22;97828.69;;;3.74;73.93
66385;BME280;53426;55.872;37.462;2023-04-01T03:20:48;97817.03;;;3.67;73.47
66385;BME280;53426;55.872;37.462;2023-04-01T03:23:14;97810.66;;;3.60;73.64
66385;BME280;53426;55.872;37.462;2023-04-01T03:25:41;97803.47;;;3.53;73.50
66385;BME280;53426;55.872;37.462;2023-04-01T03:28:07;97831.91;;;3.67;73.69
66385;BME280;53426;55.872;37.462;2023-04-01T03:30:34;97838.53;;;3.71;74.03
66385;BME280;53426;55.872;37.462;2023-04-01T03:33:00;97831.28;;;3.74;74.25
66385;BME280;53426;55.872;37.462;2023-04-01T03:35:26;97833.91;;;3.74;74.26
66385;BME280;53426;55.872;37.462;2023-04-01T03:37:53;97838.63;;;3.81;73.80
66385;BME280;53426;55.872;37.462;2023-04-01T03:40:19;97800.34;;;3.59;73.80
66385;BME280;53426;55.872;37.462;2023-04-01T03:42:45;97847.69;;;3.76;73.76
66385;BME280;53426;55.872;37.462;2023-04-01T03:45:12;97858.03;;;3.78;73.96
66385;BME280;53426;55.872;37.462;2023-04-01T03:47:38;97858.03;;;3.78;74.19
66385;BME280;53426;55.872;37.462;2023-04-01T03:50:06;97844.38;;;3.74;73.79
66385;BME280;53426;55.872;37.462;2023-04-01T03:52:33;97857.91;;;3.79;74.30
66385;BME280;53426;55.872;37.462;2023-04-01T03:55:00;97858.47;;;3.83;74.14
66385;BME280;53426;55.872;37.462;2023-04-01T03:57:32;97863.47;;;3.86;73.91
66385;BME280;53426;55.872;37.462;2023-04-01T04:00:07;97871.19;;;3.88;73.92
66385;BME280;53426;55.872;37.462;2023-04-01T04:02:39;97857.06;;;3.79;73.81
66385;BME280;53426;55.872;37.462;2023-04-01T04:05:06;97865.94;;;3.88;73.55
66385;BME280;53426;55.872;37.462;2023-04-01T04:07:34;97869.53;;;3.87;73.42
66385;BME280;53426;55.872;37.462;2023-04-01T04:10:07;97875.47;;;3.89;73.62
66385;BME280;53426;55.872;37.462;2023-04-01T04:12:33;97877.84;;;3.92;73.70
66385;BME280;53426;55.872;37.462;2023-04-01T04:14:58;97884.47;;;3.96;73.19
66385;BME280;53426;55.872;37.462;2023-04-01T04:17:24;97881.97;;;3.94;73.21
66385;BME280;53426;55.872;37.462;2023-04-01T04:19:50;97866.66;;;3.90;73.21
66385;BME280;53426;55.872;37.462;2023-04-01T04:22:16;97865.94;;;3.88;73.30
66385;BME280;53426;55.872;37.462;2023-04-01T04:24:42;97893.22;;;4.06;73.55
66385;BME280;53426;55.872;37.462;2023-04-01T04:27:11;97892.97;;;4.09;73.03
66385;BME280;53426;55.872;37.462;2023-04-01T04:29:46;97892.50;;;4.04;73.06
66385;BME280;53426;55.872;37.462;2023-04-01T04:32:12;97881.41;;;3.91;73.25
66385;BME280;53426;55.872;37.462;2023-04-01T04:34:38;97897.19;;;4.00;73.62
66385;BME280;53426;55.872;37.462;2023-04-01T04:37:05;97893.50;;;4.03;73.49
66385;BME280;53426;55.872;37.462;2023-04-01T04:39:35;97900.00;;;4.08;73.54
66385;BME280;53426;55.872;37.462;2023-04-01T04:42:02;97895.06;;;4.15;73.80
66385;BME280;53426;55.872;37.462;2023-04-01T04:44:28;97896.03;;;4.14;73.48
66385;BME280;53426;55.872;37.462;2023-04-01T04:46:54;97897.56;;;4.16;73.07
66385;BME280;53426;55.872;37.462;2023-04-01T04:49:20;97899.78;;;4.21;73.38
66385;BME280;53426;55.872;37.462;2023-04-01T04:51:46;97899.97;;;4.29;73.35
66385;BME280;53426;55.872;37.462;2023-04-01T04:54:14;97887.06;;;4.16;72.60
66385;BME280;53426;55.872;37.462;2023-04-01T04:56:52;97890.66;;;4.15;72.75
66385;BME280;53426;55.872;37.462;2023-04-01T04:59:19;97909.13;;;4.35;72.58
66385;BME280;53426;55.872;37.462;2023-04-01T05:02:11;97914.53;;;4.43;73.06
66385;BME280;53426;55.872;37.462;2023-04-01T05:04:37;97916.22;;;4.53;72.72
66385;BME280;53426;55.872;37.462;2023-04-01T05:07:05;97926.72;;;4.53;72.20
66385;BME280;53426;55.872;37.462;2023-04-01T05:09:31;97924.09;;;4.53;72.30
66385;BME280;53426;55.872;37.462;2023-04-01T05:11:58;97896.63;;;4.48;72.24
66385;BME280;53426;55.872;37.462;2023-04-01T05:14:26;97910.88;;;4.55;72.24
66385;BME280;53426;55.872;37.462;2023-04-01T05:17:02;97920.72;;;4.62;72.18
66385;BME280;53426;55.872;37.462;2023-04-01T05:19:28;97929.44;;;4.73;72.10
66385;BME280;53426;55.872;37.462;2023-04-01T05:21:54;97920.28;;;4.57;72.03
66385;BME280;53426;55.872;37.462;2023-04-01T05:24:20;97935.63;;;4.72;71.78
66385;BME280;53426;55.872;37.462;2023-04-01T05:26:47;97935.09;;;4.68;72.28
66385;BME280;53426;55.872;37.462;2023-04-01T05:29:42;97937.47;;;4.81;72.42
66385;BME280;53426;55.872;37.462;2023-04-01T05:32:30;97917.56;;;4.69;72.49
66385;BME280;53426;55.872;37.462;2023-04-01T05:34:56;97940.28;;;4.89;72.35
66385;BME280;53426;55.872;37.462;2023-04-01T05:37:22;97940.00;;;4.92;71.91
66385;BME280;53426;55.872;37.462;2023-04-01T05:39:48;97934.28;;;4.77;71.20
66385;BME280;53426;55.872;37.462;2023-04-01T05:42:17;97909.06;;;4.55;71.69
66385;BME280;53426;55.872;37.462;2023-04-01T05:44:43;97928.91;;;4.79;72.99
66385;BME280;53426;55.872;37.462;2023-04-01T05:47:28;97924.34;;;4.81;71.84
66385;BME280;53426;55.872;37.462;2023-04-01T05:49:54;97925.16;;;4.72;72.31
66385;BME280;53426;55.872;37.462;2023-04-01T05:52:20;97930.31;;;4.83;73.04
66385;BME280;53426;55.872;37.462;2023-04-01T05:54:46;97932.38;;;4.79;71.99
66385;BME280;53426;55.872;37.462;2023-04-01T05:57:12;97945.84;;;4.75;72.12
66385;BME280;53426;55.872;37.462;2023-04-01T05:59:38;97944.97;;;4.85;72.19
66385;BME280;53426;55.872;37.462;2023-04-01T06:02:04;97931.56;;;4.88;71.85
66385;BME280;53426;55.872;37.462;2023-04-01T06:04:37;97956.78;;;5.20;71.65
66385;BME280;53426;55.872;37.462;2023-04-01T06:07:17;97944.28;;;5.33;71.46
66385;BME280;53426;55.872;37.462;2023-04-01T06:09:44;97953.41;;;5.58;70.86
66385;BME280;53426;55.872;37.462;2023-04-01T06:12:27;97956.91;;;5.77;69.78
66385;BME280;53426;55.872;37.462;2023-04-01T06:18:25;97951.66;;;6.25;68.96
66385;BME280;53426;55.872;37.462;2023-04-01T06:29:53;97953.50;;;7.36;64.36
66385;BME280;53426;55.872;37.462;2023-04-01T06:35:21;97951.66;;;7.81;63.43
66385;BME280;53426;55.872;37.462;2023-04-01T06:38:10;97958.28;;;8.03;62.51
66385;BME280;53426;55.872;37.462;2023-04-01T06:49:56;97968.28;;;7.09;63.82
66385;BME280;53426;55.872;37.462;2023-04-01T06:55:44;97958.66;;;7.00;63.55
66385;BME280;53426;55.872;37.462;2023-04-01T06:58:34;97982.78;;;6.96;63.68
66385;BME280;53426;55.872;37.462;2023-04-01T07:01:04;97982.78;;;6.96;64.18
66385;BME280;53426;55.872;37.462;2023-04-01T07:03:34;97988.00;;;7.05;63.94
66385;BME280;53426;55.872;37.462;2023-04-01T07:06:09;97994.22;;;7.14;63.17
66385;BME280;53426;55.872;37.462;2023-04-01T07:08:49;97997.03;;;7.30;62.92
66385;BME280;53426;55.872;37.462;2023-04-01T07:11:25;97984.22;;;7.45;62.56
66385;BME280;53426;55.872;37.462;2023-04-01T07:14:31;97982.59;;;8.15;61.54
66385;BME280;53426;55.872;37.462;2023-04-01T07:17:07;97987.38;;;8.72;59.36
66385;BME280;53426;55.872;37.462;2023-04-01T07:19:36;97986.50;;;9.23;58.22
66385;BME280;53426;55.872;37.462;2023-04-01T07:25:44;97969.25;;;9.45;56.91
66385;BME280;53426;55.872;37.462;2023-04-01T07:28:32;97986.69;;;9.72;56.38
66385;BME280;53426;55.872;37.462;2023-04-01T07:34:09;97996.13;;;9.75;56.19
66385;BME280;53426;55.872;37.462;2023-04-01T07:47:50;98002.22;;;9.75;55.03
66385;BME280;53426;55.872;37.462;2023-04-01T07:50:39;98004.66;;;9.60;56.28
66385;BME280;53426;55.872;37.462;2023-04-01T07:55:54;97990.91;;;9.49;55.82
66385;BME280;53426;55.872;37.462;2023-04-01T08:01:27;98017.41;;;9.73;56.00
66385;BME280;53426;55.872;37.462;2023-04-01T08:04:18;98006.69;;;9.75;55.54
66385;BME280;53426;55.872;37.462;2023-04-01T08:07:23;98017.22;;;9.58;55.66
66385;BME280;53426;55.872;37.462;2023-04-01T08:13:14;98018.31;;;9.98;54.91
66385;BME280;53426;55.872;37.462;2023-04-01T08:19:09;98025.19;;;9.75;53.88
66385;BME280;53426;55.872;37.462;2023-04-01T08:21:51;98019.50;;;9.53;55.33
66385;BME280;53426;55.872;37.462;2023-04-01T08:26:59;98031.84;;;9.45;53.30
66385;BME280;53426;55.872;37.462;2023-04-01T08:32:16;98027.09;;;9.56;55.21
66385;BME280;53426;55.872;37.462;2023-04-01T08:34:48;98029.63;;;10.32;52.97
66385;BME280;53426;55.872;37.462;2023-04-01T08:37:30;98025.03;;;10.67;51.83
66385;BME280;53426;55.872;37.462;2023-04-01T08:48:34;98004.44;;;17.83;38.83
66385;BME280;53426;55.872;37.462;2023-04-01T08:56:23;98024.28;;;20.41;32.23
66385;BME280;53426;55.872;37.462;2023-04-01T09:23:14;98032.97;;;20.97;30.11
66385;BME280;53426;55.872;37.462;2023-04-01T09:37:19;98061.59;;;21.33;26.15
66385;BME280;53426;55.872;37.462;2023-04-01T09:46:06;98056.66;;;21.99;25.19
66385;BME280;53426;55.872;37.462;2023-04-01T09:49:17;98043.50;;;22.43;25.62
66385;BME280;53426;55.872;37.462;2023-04-01T09:51:52;98065.09;;;21.80;25.61
66385;BME280;53426;55.872;37.462;2023-04-01T10:05:34;98069.47;;;20.93;25.44
66385;BME280;53426;55.872;37.462;2023-04-01T10:14:02;98080.38;;;20.38;26.72
66385;BME280;53426;55.872;37.462;2023-04-01T10:28:41;98083.03;;;18.53;30.25
66385;BME280;53426;55.872;37.462;2023-04-01T10:31:29;98089.69;;;17.86;31.48
66385;BME280;53426;55.872;37.462;2023-04-01T10:34:27;98092.53;;;17.97;31.06
66385;BME280;53426;55.872;37.462;2023-04-01T10:49:01;98102.69;;;15.82;34.50
66385;BME280;53426;55.872;37.462;2023-04-01T10:51:42;98099.03;;;15.89;34.41
66385;BME280;53426;55.872;37.462;2023-04-01T10:54:49;98096.78;;;18.25;31.10
66385;BME280;53426;55.872;37.462;2023-04-01T10:58:36;98097.16;;;16.98;31.58
66385;BME280;53426;55.872;37.462;2023-04-01T11:13:08;98102.63;;;16.03;32.71
66385;BME280;53426;55.872;37.462;2023-04-01T11:21:46;98115.16;;;13.46;37.43
66385;BME280;53426;55.872;37.462;2023-04-01T11:33:36;98116.34;;;11.91;40.44
66385;BME280;53426;55.872;37.462;2023-04-01T11:42:03;98123.28;;;11.45;41.36
66385;BME280;53426;55.872;37.462;2023-04-01T11:48:07;98122.47;;;11.04;42.75
66385;BME280;53426;55.872;37.462;2023-04-01T11:51:05;98122.00;;;11.00;42.27
66385;BME280;53426;55.872;37.462;2023-04-01T12:02:29;98134.56;;;10.82;42.67
66385;BME280;53426;55.872;37.462;2023-04-01T12:11:22;98116.66;;;10.76;42.00
66385;BME280;53426;55.872;37.462;2023-04-01T12:13:55;98122.25;;;10.48;42.60
66385;BME280;53426;55.872;37.462;2023-04-01T12:19:17;98134.63;;;9.90;43.61
66385;BME280;53426;55.872;37.462;2023-04-01T12:21:56;98130.63;;;9.86;43.84
66385;BME280;53426;55.872;37.462;2023-04-01T12:24:46;98133.78;;;10.23;43.58
66385;BME280;53426;55.872;37.462;2023-04-01T12:30:32;98141.78;;;10.05;43.40
66385;BME280;53426;55.872;37.462;2023-04-01T12:33:26;98125.41;;;10.02;43.71
66385;BME280;53426;55.872;37.462;2023-04-01T12:39:11;98134.81;;;10.30;43.36
66385;BME280;53426;55.872;37.462;2023-04-01T12:52:10;98124.25;;;10.04;43.05
66385;BME280;53426;55.872;37.462;2023-04-01T12:54:45;98149.38;;;10.00;44.14
66385;BME280;53426;55.872;37.462;2023-04-01T13:00:03;98157.56;;;9.89;45.21
66385;BME280;53426;55.872;37.462;2023-04-01T13:11:20;98160.00;;;9.75;45.50
66385;BME280;53426;55.872;37.462;2023-04-01T13:16:37;98170.97;;;9.62;45.78
66385;BME280;53426;55.872;37.462;2023-04-01T13:19:22;98171.97;;;9.61;46.40
66385;BME280;53426;55.872;37.462;2023-04-01T13:22:15;98175.78;;;9.66;46.29
66385;BME280;53426;55.872;37.462;2023-04-01T13:24:46;98170.50;;;9.66;45.73
66385;BME280;53426;55.872;37.462;2023-04-01T13:30:16;98178.66;;;9.47;45.34
66385;BME280;53426;55.872;37.462;2023-04-01T13:32:55;98177.25;;;9.17;45.65
66385;BME280;53426;55.872;37.462;2023-04-01T13:35:39;98171.38;;;9.23;45.53
66385;BME280;53426;55.872;37.462;2023-04-01T13:41:18;98181.28;;;9.04;46.18
66385;BME280;53426;55.872;37.462;2023-04-01T13:50:37;98188.69;;;8.82;46.67
66385;BME280;53426;55.872;37.462;2023-04-01T13:53:19;98198.94;;;8.86;45.72
66385;BME280;53426;55.872;37.462;2023-04-01T13:55:57;98201.88;;;8.82;45.47
66385;BME280;53426;55.872;37.462;2023-04-01T14:01:20;98195.41;;;8.77;45.49
66385;BME280;53426;55.872;37.462;2023-04-01T14:06:37;98215.97;;;8.73;45.35
66385;BME280;53426;55.872;37.462;2023-04-01T14:23:51;98225.31;;;8.40;49.04
66385;BME280;53426;55.872;37.462;2023-04-01T14:35:32;98246.19;;;8.24;50.71
66385;BME280;53426;55.872;37.462;2023-04-01T14:38:25;98235.59;;;8.07;52.02
66385;BME280;53426;55.872;37.462;2023-04-01T14:44:23;98229.03;;;7.83;52.81
66385;BME280;53426;55.872;37.462;2023-04-01T14:46:51;98254.38;;;7.94;53.09
66385;BME280;53426;55.872;37.462;2023-04-01T14:49:46;98250.50;;;7.88;53.43
66385;BME280;53426;55.872;37.462;2023-04-01T14:52:39;98256.56;;;7.98;53.70
66385;BME280;53426;55.872;37.462;2023-04-01T14:58:40;98184.81;;;7.31;56.57
66385;BME280;53426;55.872;37.462;2023-04-01T15:30:02;98302.44;;;7.30;61.17
66385;BME280;53426;55.872;37.462;2023-04-01T15:38:35;98304.09;;;7.41;61.92
66385;BME280;53426;55.872;37.462;2023-04-01T15:43:50;98299.94;;;7.29;61.92
66385;BME280;53426;55.872;37.462;2023-04-01T15:52:18;98322.13;;;7.36;63.42
66385;BME280;53426;55.872;37.462;2023-04-01T15:55:24;98321.00;;;7.38;63.99
66385;BME280;53426;55.872;37.462;2023-04-01T16:00:56;98329.72;;;7.20;65.25
66385;BME280;53426;55.872;37.462;2023-04-01T16:04:27;98330.69;;;7.09;65.33
66385;BME280;53426;55.872;37.462;2023-04-01T16:18:12;98359.91;;;7.06;68.39
66385;BME280;53426;55.872;37.462;2023-04-01T16:26:35;98359.88;;;6.96;67.98
66385;BME280;53426;55.872;37.462;2023-04-01T16:29:21;98364.03;;;6.99;68.77
66385;BME280;53426;55.872;37.462;2023-04-01T16:32:04;98354.44;;;6.88;68.78
66385;BME280;53426;55.872;37.462;2023-04-01T16:34:41;98368.59;;;6.87;68.92
66385;BME280;53426;55.872;37.462;2023-04-01T16:37:32;98350.97;;;6.78;69.78
66385;BME280;53426;55.872;37.462;2023-04-01T16:40:24;98380.09;;;6.86;69.83
66385;BME280;53426;55.872;37.462;2023-04-01T16:43:05;98379.94;;;6.88;69.54
66385;BME280;53426;55.872;37.462;2023-04-01T16:45:36;98376.50;;;6.87;69.47
66385;BME280;53426;55.872;37.462;2023-04-01T16:48:17;98370.63;;;6.84;69.82
66385;BME280;53426;55.872;37.462;2023-04-01T16:53:31;98374.50;;;6.80;69.87
66385;BME280;53426;55.872;37.462;2023-04-01T16:56:20;98374.09;;;6.75;69.60
66385;BME280;53426;55.872;37.462;2023-04-01T16:59:02;98391.28;;;6.88;70.39
66385;BME280;53426;55.872;37.462;2023-04-01T17:01:51;98387.72;;;6.99;69.55
66385;BME280;53426;55.872;37.462;2023-04-01T17:04:47;98384.00;;;7.01;69.53
66385;BME280;53426;55.872;37.462;2023-04-01T17:07:38;98389.25;;;7.01;69.63
66385;BME280;53426;55.872;37.462;2023-04-01T17:18:23;98395.59;;;6.89;69.67
66385;BME280;53426;55.872;37.462;2023-04-01T17:20:59;98401.25;;;6.85;70.30
66385;BME280;53426;55.872;37.462;2023-04-01T17:23:52;98388.50;;;6.80;69.93
66385;BME280;53426;55.872;37.462;2023-04-01T17:29:15;98386.00;;;6.79;70.23
66385;BME280;53426;55.872;37.462;2023-04-01T17:31:51;98399.88;;;6.81;70.57
66385;BME280;53426;55.872;37.462;2023-04-01T17:48:18;98414.41;;;6.85;70.04
66385;BME280;53426;55.872;37.462;2023-04-01T17:51:08;98408.31;;;6.84;70.52
66385;BME280;53426;55.872;37.462;2023-04-01T17:56:39;98422.44;;;6.83;70.42
66385;BME280;53426;55.872;37.462;2023-04-01T17:59:31;98420.50;;;6.85;70.36
66385;BME280;53426;55.872;37.462;2023-04-01T18:15:46;98428.19;;;6.67;70.90
66385;BME280;53426;55.872;37.462;2023-04-01T18:18:40;98424.72;;;6.67;71.22
66385;BME280;53426;55.872;37.462;2023-04-01T18:21:16;98427.50;;;6.65;71.81
66385;BME280;53426;55.872;37.462;2023-04-01T18:24:02;98438.97;;;6.64;71.89
66385;BME280;53426;55.872;37.462;2023-04-01T18:26:33;98412.59;;;6.55;71.68
66385;BME280;53426;55.872;37.462;2023-04-01T18:31:42;98440.50;;;6.67;71.85
66385;BME280;53426;55.872;37.462;2023-04-01T18:36:49;98447.81;;;6.63;71.74
66385;BME280;53426;55.872;37.462;2023-04-01T18:39:22;98451.16;;;6.65;71.97
66385;BME280;53426;55.872;37.462;2023-04-01T18:42:03;98436.94;;;6.47;71.85
66385;BME280;53426;55.872;37.462;2023-04-01T18:44:49;98469.25;;;6.59;72.51
66385;BME280;53426;55.872;37.462;2023-04-01T18:50:23;98472.13;;;6.56;72.45
66385;BME280;53426;55.872;37.462;2023-04-01T18:56:15;98464.47;;;6.43;72.38
66385;BME280;53426;55.872;37.462;2023-04-01T18:59:10;98479.78;;;6.59;72.44
66385;BME280;53426;55.872;37.462;2023-04-01T19:04:31;98482.13;;;6.62;71.98
66385;BME280;53426;55.872;37.462;2023-04-01T19:07:19;98469.25;;;6.59;72.63
66385;BME280;53426;55.872;37.462;2023-04-01T19:09:48;98471.50;;;6.63;73.15
66385;BME280;53426;55.872;37.462;2023-04-01T19:12:34;98469.09;;;6.60;72.52
66385;BME280;53426;55.872;37.462;2023-04-01T19:15:38;98468.97;;;6.62;72.82
66385;BME280;53426;55.872;37.462;2023-04-01T19:21:26;98475.47;;;6.58;73.61
66385;BME280;53426;55.872;37.462;2023-04-01T19:26:48;98485.91;;;6.69;73.09
66385;BME280;53426;55.872;37.462;2023-04-01T19:37:54;98514.75;;;6.70;74.09
66385;BME280;53426;55.872;37.462;2023-04-01T19:40:43;98508.03;;;6.66;73.81
66385;BME280;53426;55.872;37.462;2023-04-01T19:43:46;98500.53;;;6.62;74.63
66385;BME280;53426;55.872;37.462;2023-04-01T19:46:40;98505.81;;;6.62;75.71
66385;BME280;53426;55.872;37.462;2023-04-01T19:52:00;98497.28;;;6.49;76.87
66385;BME280;53426;55.872;37.462;2023-04-01T19:57:25;98503.25;;;6.51;76.38
66385;BME280;53426;55.872;37.462;2023-04-01T20:05:35;98488.69;;;6.47;75.61
66385;BME280;53426;55.872;37.462;2023-04-01T20:08:10;98491.75;;;6.52;75.65
66385;BME280;53426;55.872;37.462;2023-04-01T20:11:18;98512.84;;;6.61;75.56
66385;BME280;53426;55.872;37.462;2023-04-01T20:19:40;98490.81;;;6.53;75.54
66385;BME280;53426;55.872;37.462;2023-04-01T20:25:32;98495.72;;;6.67;75.24
66385;BME280;53426;55.872;37.462;2023-04-01T20:28:13;98511.44;;;6.78;75.44
66385;BME280;53426;55.872;37.462;2023-04-01T20:36:30;98496.75;;;6.76;75.63
66385;BME280;53426;55.872;37.462;2023-04-01T20:41:53;98494.97;;;6.76;75.86
66385;BME280;53426;55.872;37.462;2023-04-01T20:44:44;98468.16;;;6.61;75.52
66385;BME280;53426;55.872;37.462;2023-04-01T20:47:22;98505.50;;;6.76;75.60
66385;BME280;53426;55.872;37.462;2023-04-01T20:52:53;98497.53;;;6.66;76.01
66385;BME280;53426;55.872;37.462;2023-04-01T20:58:40;98505.41;;;6.66;75.93
66385;BME280;53426;55.872;37.462;2023-04-01T21:01:33;98512.22;;;6.69;76.39
66385;BME280;53426;55.872;37.462;2023-04-01T21:04:17;98516.91;;;6.65;76.08
66385;BME280;53426;55.872;37.462;2023-04-01T21:07:08;98517.50;;;6.69;76.16
66385;BME280;53426;55.872;37.462;2023-04-01T21:12:51;98521.63;;;6.71;75.79
66385;BME280;53426;55.872;37.462;2023-04-01T21:32:34;98541.78;;;6.82;75.78
66385;BME280;53426;55.872;37.462;2023-04-01T21:35:31;98546.22;;;6.82;75.38
66385;BME280;53426;55.872;37.462;2023-04-01T22:08:45;98550.22;;;6.76;76.15
66385;BME280;53426;55.872;37.462;2023-04-01T22:11:46;98550.16;;;6.87;76.36
66385;BME280;53426;55.872;37.462;2023-04-01T22:14:33;98526.97;;;6.81;76.00
66385;BME280;53426;55.872;37.462;2023-04-01T22:17:28;98541.97;;;6.90;75.55
66385;BME280;53426;55.872;37.462;2023-04-01T22:20:03;98556.59;;;7.04;75.83
66385;BME280;53426;55.872;37.462;2023-04-01T22:28:11;98532.53;;;7.08;75.30
66385;BME280;53426;55.872;37.462;2023-04-01T22:30:43;98544.63;;;7.21;75.34
66385;BME280;53426;55.872;37.462;2023-04-01T22:35:52;98549.72;;;7.12;75.38
66385;BME280;53426;55.872;37.462;2023-04-01T22:41:18;98545.25;;;7.03;75.58
66385;BME280;53426;55.872;37.462;2023-04-01T22:43:47;98553.16;;;7.03;75.98
66385;BME280;53426;55.872;37.462;2023-04-01T22:49:27;98546.44;;;6.99;75.97
66385;BME280;53426;55.872;37.462;2023-04-01T22:52:45;98551.41;;;6.93;76.59
66385;BME280;53426;55.872;37.462;2023-04-01T22:55:02;98548.75;;;6.93;76.98